sensor_id;sensor_type;location;lat;lon;timestamp;pressure;altitude;pressure_sealevel;temperature;humidity
48402;BME280;65988;52.422;16.746;2022-12-28T00:20:10;101055.03;;;0.09;100.00
48402;BME280;65988;52.422;16.746;2022-12-28T00:22:49;101087.63;;;0.23;100.00
48402;BME280;65988;52.422;16.746;2022-12-28T00:25:41;101087.47;;;0.18;100.00
48402;BME280;65988;52.422;16.746;2022-12-28T00:30:58;101073.56;;;0.05;100.00
48402;BME280;65988;52.422;16.746;2022-12-28T00:33:33;101084.69;;;0.09;100.00
48402;BME280;65988;52.422;16.746;2022-12-28T00:39:22;101101.56;;;0.07;100.00
48402;BME280;65988;52.422;16.746;2022-12-28T00:41:52;101084.38;;;-0.02;100.00
48402;BME280;65988;52.422;16.746;2022-12-28T00:44:27;101075.06;;;-0.02;100.00
48402;BME280;65988;52.422;16.746;2022-12-28T00:47:02;101064.16;;;0.03;100.00
48402;BME280;65988;52.422;16.746;2022-12-28T00:49:27;101077.03;;;0.07;100.00
48402;BME280;65988;52.422;16.746;2022-12-28T00:51:58;101052.91;;;-0.06;100.00
48402;BME280;65988;52.422;16.746;2022-12-28T00:54:26;101080.41;;;0.08;100.00
48402;BME280;65988;52.422;16.746;2022-12-28T00:56:53;101049.47;;;-0.08;100.00
48402;BME280;65988;52.422;16.746;2022-12-28T00:59:18;101059.63;;;-0.08;100.00
48402;BME280;65988;52.422;16.746;2022-12-28T01:01:44;101057.22;;;-0.03;100.00
48402;BME280;65988;52.422;16.746;2022-12-28T01:04:10;101044.38;;;-0.08;100.00
48402;BME280;65988;52.422;16.746;2022-12-28T01:06:37;101044.72;;;0.05;100.00
48402;BME280;65988;52.422;16.746;2022-12-28T01:09:04;101033.59;;;0.01;100.00
48402;BME280;65988;52.422;16.746;2022-12-28T01:11:31;101041.59;;;0.15;100.00
48402;BME280;65988;52.422;16.746;2022-12-28T01:14:00;101006.50;;;0.02;100.00
48402;BME280;65988;52.422;16.746;2022-12-28T01:16:34;101019.63;;;0.17;100.00
48402;BME280;65988;52.422;16.746;2022-12-28T01:19:02;101041.34;;;0.38;100.00
48402;BME280;65988;52.422;16.746;2022-12-28T01:21:30;101007.88;;;0.22;100.00
48402;BME280;65988;52.422;16.746;2022-12-28T01:24:01;101009.59;;;0.23;100.00
48402;BME280;65988;52.422;16.746;2022-12-28T01:26:27;101004.59;;;0.26;100.00
48402;BME280;65988;52.422;16.746;2022-12-28T01:28:53;100956.06;;;-0.15;100.00
48402;BME280;65988;52.422;16.746;2022-12-28T01:31:19;100991.53;;;0.14;100.00
48402;BME280;65988;52.422;16.746;2022-12-28T01:33:46;101008.94;;;0.30;100.00
48402;BME280;65988;52.422;16.746;2022-12-28T01:36:15;101009.81;;;0.31;100.00
48402;BME280;65988;52.422;16.746;2022-12-28T01:38:41;100953.91;;;0.01;100.00
48402;BME280;65988;52.422;16.746;2022-12-28T01:41:09;100978.03;;;0.15;100.00
48402;BME280;65988;52.422;16.746;2022-12-28T01:43:42;100987.53;;;0.22;100.00
48402;BME280;65988;52.422;16.746;2022-12-28T01:46:48;100958.31;;;0.06;100.00
48402;BME280;65988;52.422;16.746;2022-12-28T01:49:18;100991.72;;;0.20;100.00
48402;BME280;65988;52.422;16.746;2022-12-28T01:51:52;100990.81;;;0.18;100.00
48402;BME280;65988;52.422;16.746;2022-12-28T01:54:21;100974.38;;;0.05;100.00
48402;BME280;65988;52.422;16.746;2022-12-28T01:56:49;100984.03;;;0.17;100.00
48402;BME280;65988;52.422;16.746;2022-12-28T01:59:17;100959.06;;;0.04;100.00
48402;BME280;65988;52.422;16.746;2022-12-28T02:01:44;100968.63;;;0.12;100.00
48402;BME280;65988;52.422;16.746;2022-12-28T02:04:09;100957.47;;;0.07;100.00
48402;BME280;65988;52.422;16.746;2022-12-28T02:06:35;100971.44;;;0.23;100.00
48402;BME280;65988;52.422;16.746;2022-12-28T02:09:05;100956.06;;;0.19;100.00
48402;BME280;65988;52.422;16.746;2022-12-28T02:11:34;100942.66;;;0.24;100.00
48402;BME280;65988;52.422;16.746;2022-12-28T02:14:00;100920.34;;;0.14;100.00
48402;BME280;65988;52.422;16.746;2022-12-28T02:16:26;100933.34;;;0.26;100.00
48402;BME280;65988;52.422;16.746;2022-12-28T02:18:52;100893.88;;;0.06;100.00
48402;BME280;65988;52.422;16.746;2022-12-28T02:26:42;100917.16;;;0.21;100.00
48402;BME280;65988;52.422;16.746;2022-12-28T02:37:35;100910.00;;;0.08;100.00
48402;BME280;65988;52.422;16.746;2022-12-28T02:42:38;100889.66;;;0.08;100.00
48402;BME280;65988;52.422;16.746;2022-12-28T02:45:05;100841.75;;;-0.10;100.00
48402;BME280;65988;52.422;16.746;2022-12-28T02:47:50;100892.22;;;0.08;100.00
48402;BME280;65988;52.422;16.746;2022-12-28T02:50:50;100877.63;;;0.01;100.00
48402;BME280;65988;52.422;16.746;2022-12-28T02:56:25;100894.56;;;0.00;100.00
48402;BME280;65988;52.422;16.746;2022-12-28T03:07:26;100892.69;;;-0.07;100.00
48402;BME280;65988;52.422;16.746;2022-12-28T03:10:42;100907.16;;;-0.05;100.00
48402;BME280;65988;52.422;16.746;2022-12-28T03:13:14;100892.59;;;-0.10;100.00
48402;BME280;65988;52.422;16.746;2022-12-28T03:16:05;100895.22;;;-0.07;100.00
48402;BME280;65988;52.422;16.746;2022-12-28T03:18:33;100869.41;;;-0.23;100.00
48402;BME280;65988;52.422;16.746;2022-12-28T03:21:19;100901.38;;;0.01;100.00
48402;BME280;65988;52.422;16.746;2022-12-28T03:24:04;100877.19;;;-0.16;100.00
48402;BME280;65988;52.422;16.746;2022-12-28T03:26:50;100881.06;;;0.03;100.00
48402;BME280;65988;52.422;16.746;2022-12-28T03:29:39;100851.81;;;-0.15;100.00
48402;BME280;65988;52.422;16.746;2022-12-28T03:32:26;100843.88;;;-0.27;100.00
48402;BME280;65988;52.422;16.746;2022-12-28T03:34:52;100870.09;;;0.05;100.00
48402;BME280;65988;52.422;16.746;2022-12-28T03:37:33;100853.25;;;0.09;100.00
48402;BME280;65988;52.422;16.746;2022-12-28T03:40:32;100841.13;;;-0.02;100.00
48402;BME280;65988;52.422;16.746;2022-12-28T03:43:09;100838.03;;;0.10;100.00
48402;BME280;65988;52.422;16.746;2022-12-28T03:46:08;100847.66;;;0.24;100.00
48402;BME280;65988;52.422;16.746;2022-12-28T03:48:36;100862.66;;;0.48;100.00
48402;BME280;65988;52.422;16.746;2022-12-28T03:51:01;100811.41;;;0.32;100.00
48402;BME280;65988;52.422;16.746;2022-12-28T03:53:36;100826.06;;;0.43;100.00
48402;BME280;65988;52.422;16.746;2022-12-28T03:56:15;100788.53;;;0.34;100.00
48402;BME280;65988;52.422;16.746;2022-12-28T03:58:41;100804.84;;;0.42;100.00
48402;BME280;65988;52.422;16.746;2022-12-28T04:01:06;100806.72;;;0.51;100.00
48402;BME280;65988;52.422;16.746;2022-12-28T04:03:32;100811.94;;;0.57;100.00
48402;BME280;65988;52.422;16.746;2022-12-28T04:05:58;100781.84;;;0.39;100.00
48402;BME280;65988;52.422;16.746;2022-12-28T04:08:25;100779.38;;;0.41;100.00
48402;BME280;65988;52.422;16.746;2022-12-28T04:10:50;100759.03;;;0.41;100.00
48402;BME280;65988;52.422;16.746;2022-12-28T04:13:16;100761.03;;;0.57;100.00
48402;BME280;65988;52.422;16.746;2022-12-28T04:15:41;100748.28;;;0.56;100.00
48402;BME280;65988;52.422;16.746;2022-12-28T04:18:07;100763.00;;;0.69;100.00
48402;BME280;65988;52.422;16.746;2022-12-28T04:20:32;100745.75;;;0.57;100.00
48402;BME280;65988;52.422;16.746;2022-12-28T04:22:58;100729.66;;;0.57;100.00
48402;BME280;65988;52.422;16.746;2022-12-28T04:25:25;100739.28;;;0.72;100.00
48402;BME280;65988;52.422;16.746;2022-12-28T04:27:50;100708.75;;;0.72;100.00
48402;BME280;65988;52.422;16.746;2022-12-28T04:30:16;100688.25;;;0.65;100.00
48402;BME280;65988;52.422;16.746;2022-12-28T04:32:41;100717.41;;;0.81;100.00
48402;BME280;65988;52.422;16.746;2022-12-28T04:35:07;100695.16;;;0.73;100.00
48402;BME280;65988;52.422;16.746;2022-12-28T04:37:35;100686.66;;;0.71;100.00
48402;BME280;65988;52.422;16.746;2022-12-28T04:40:01;100685.06;;;0.76;100.00
48402;BME280;65988;52.422;16.746;2022-12-28T04:42:27;100691.53;;;1.04;100.00
48402;BME280;65988;52.422;16.746;2022-12-28T04:44:52;100669.56;;;1.11;100.00
48402;BME280;65988;52.422;16.746;2022-12-28T04:47:18;100659.41;;;1.12;100.00
48402;BME280;65988;52.422;16.746;2022-12-28T04:49:43;100649.09;;;1.08;100.00
48402;BME280;65988;52.422;16.746;2022-12-28T04:52:08;100603.25;;;0.57;100.00
48402;BME280;65988;52.422;16.746;2022-12-28T04:54:34;100651.22;;;0.81;100.00
48402;BME280;65988;52.422;16.746;2022-12-28T04:56:59;100624.59;;;0.64;100.00
48402;BME280;65988;52.422;16.746;2022-12-28T04:59:25;100642.47;;;0.68;100.00
48402;BME280;65988;52.422;16.746;2022-12-28T05:01:50;100629.47;;;0.53;100.00
48402;BME280;65988;52.422;16.746;2022-12-28T05:04:16;100611.53;;;0.45;100.00
48402;BME280;65988;52.422;16.746;2022-12-28T05:06:41;100628.69;;;0.57;100.00
48402;BME280;65988;52.422;16.746;2022-12-28T05:09:06;100626.81;;;0.47;100.00
48402;BME280;65988;52.422;16.746;2022-12-28T05:11:32;100667.06;;;0.66;100.00
48402;BME280;65988;52.422;16.746;2022-12-28T05:13:57;100654.34;;;0.66;100.00
48402;BME280;65988;52.422;16.746;2022-12-28T05:16:25;100651.69;;;0.60;100.00
48402;BME280;65988;52.422;16.746;2022-12-28T05:18:51;100644.31;;;0.74;100.00
48402;BME280;65988;52.422;16.746;2022-12-28T05:21:19;100641.75;;;0.74;100.00
48402;BME280;65988;52.422;16.746;2022-12-28T05:23:45;100642.47;;;0.68;100.00
48402;BME280;65988;52.422;16.746;2022-12-28T05:26:13;100630.47;;;0.61;100.00
48402;BME280;65988;52.422;16.746;2022-12-28T05:28:39;100599.66;;;0.47;100.00
48402;BME280;65988;52.422;16.746;2022-12-28T05:31:08;100613.44;;;0.59;100.00
48402;BME280;65988;52.422;16.746;2022-12-28T05:33:35;100608.50;;;0.66;100.00
48402;BME280;65988;52.422;16.746;2022-12-28T05:36:04;100613.94;;;0.87;100.00
48402;BME280;65988;52.422;16.746;2022-12-28T05:38:30;100584.84;;;0.72;100.00
48402;BME280;65988;52.422;16.746;2022-12-28T05:41:06;100591.00;;;0.83;100.00
48402;BME280;65988;52.422;16.746;2022-12-28T05:43:32;100584.41;;;0.96;100.00
48402;BME280;65988;52.422;16.746;2022-12-28T05:46:03;100563.34;;;1.05;100.00
48402;BME280;65988;52.422;16.746;2022-12-28T05:48:33;100527.41;;;0.88;100.00
48402;BME280;65988;52.422;16.746;2022-12-28T05:51:04;100518.81;;;0.80;100.00
48402;BME280;65988;52.422;16.746;2022-12-28T05:53:31;100547.91;;;0.96;100.00
48402;BME280;65988;52.422;16.746;2022-12-28T05:56:01;100549.53;;;0.92;100.00
48402;BME280;65988;52.422;16.746;2022-12-28T05:58:28;100531.47;;;0.78;100.00
48402;BME280;65988;52.422;16.746;2022-12-28T06:00:53;100522.78;;;0.64;100.00
48402;BME280;65988;52.422;16.746;2022-12-28T06:03:19;100538.16;;;0.70;100.00
48402;BME280;65988;52.422;16.746;2022-12-28T06:05:44;100555.09;;;0.68;100.00
48402;BME280;65988;52.422;16.746;2022-12-28T06:08:09;100540.31;;;0.48;100.00
48402;BME280;65988;52.422;16.746;2022-12-28T06:10:35;100588.16;;;0.68;100.00
48402;BME280;65988;52.422;16.746;2022-12-28T06:13:00;100542.00;;;0.46;100.00
48402;BME280;65988;52.422;16.746;2022-12-28T06:15:26;100573.59;;;0.59;100.00
48402;BME280;65988;52.422;16.746;2022-12-28T06:17:52;100565.84;;;0.53;100.00
48402;BME280;65988;52.422;16.746;2022-12-28T06:20:17;100571.84;;;0.57;100.00
48402;BME280;65988;52.422;16.746;2022-12-28T06:22:43;100561.69;;;0.58;100.00
48402;BME280;65988;52.422;16.746;2022-12-28T06:25:08;100590.75;;;0.71;100.00
48402;BME280;65988;52.422;16.746;2022-12-28T06:27:34;100590.50;;;0.57;100.00
48402;BME280;65988;52.422;16.746;2022-12-28T06:29:59;100609.47;;;0.72;100.00
48402;BME280;65988;52.422;16.746;2022-12-28T06:32:25;100585.75;;;0.74;100.00
48402;BME280;65988;52.422;16.746;2022-12-28T06:34:50;100594.44;;;0.85;100.00
48402;BME280;65988;52.422;16.746;2022-12-28T06:37:16;100556.00;;;0.72;100.00
48402;BME280;65988;52.422;16.746;2022-12-28T06:39:41;100581.00;;;0.96;100.00
48402;BME280;65988;52.422;16.746;2022-12-28T06:42:06;100530.56;;;0.72;100.00
48402;BME280;65988;52.422;16.746;2022-12-28T06:44:32;100550.44;;;0.96;100.00
48402;BME280;65988;52.422;16.746;2022-12-28T06:46:57;100562.47;;;1.05;100.00
48402;BME280;65988;52.422;16.746;2022-12-28T06:49:23;100513.13;;;0.98;100.00
48402;BME280;65988;52.422;16.746;2022-12-28T06:51:48;100535.50;;;1.17;100.00
48402;BME280;65988;52.422;16.746;2022-12-28T06:54:13;100486.91;;;1.04;100.00
48402;BME280;65988;52.422;16.746;2022-12-28T06:56:39;100481.00;;;1.06;100.00
48402;BME280;65988;52.422;16.746;2022-12-28T06:59:05;100494.81;;;1.22;100.00
48402;BME280;65988;52.422;16.746;2022-12-28T07:01:33;100474.41;;;1.19;100.00
48402;BME280;65988;52.422;16.746;2022-12-28T07:04:00;100470.97;;;1.17;99.94
48402;BME280;65988;52.422;16.746;2022-12-28T07:06:28;100465.94;;;1.23;99.83
48402;BME280;65988;52.422;16.746;2022-12-28T07:08:58;100439.53;;;1.15;99.64
48402;BME280;65988;52.422;16.746;2022-12-28T07:11:25;100442.97;;;1.20;99.34
48402;BME280;65988;52.422;16.746;2022-12-28T07:13:51;100414.88;;;1.12;98.99
48402;BME280;65988;52.422;16.746;2022-12-28T07:16:19;100424.44;;;1.29;99.10
48402;BME280;65988;52.422;16.746;2022-12-28T07:18:45;100436.22;;;1.22;98.55
48402;BME280;65988;52.422;16.746;2022-12-28T07:21:14;100417.53;;;1.23;98.58
48402;BME280;65988;52.422;16.746;2022-12-28T07:23:40;100397.94;;;1.17;98.71
48402;BME280;65988;52.422;16.746;2022-12-28T07:26:11;100416.75;;;1.27;98.47
48402;BME280;65988;52.422;16.746;2022-12-28T07:28:42;100392.03;;;1.22;98.36
48402;BME280;65988;52.422;16.746;2022-12-28T07:31:12;100409.22;;;1.38;98.30
48402;BME280;65988;52.422;16.746;2022-12-28T07:33:39;100414.38;;;1.41;98.02
48402;BME280;65988;52.422;16.746;2022-12-28T07:36:06;100382.72;;;1.21;98.05
48402;BME280;65988;52.422;16.746;2022-12-28T07:38:33;100399.00;;;1.33;98.16
48402;BME280;65988;52.422;16.746;2022-12-28T07:41:10;100378.59;;;1.32;97.75
48402;BME280;65988;52.422;16.746;2022-12-28T07:43:37;100388.00;;;1.38;97.82
48402;BME280;65988;52.422;16.746;2022-12-28T07:46:05;100351.19;;;1.12;97.88
48402;BME280;65988;52.422;16.746;2022-12-28T07:48:32;100386.31;;;1.38;97.66
48402;BME280;65988;52.422;16.746;2022-12-28T07:51:12;100375.97;;;1.26;97.83
48402;BME280;65988;52.422;16.746;2022-12-28T07:53:38;100390.63;;;1.44;97.87
48402;BME280;65988;52.422;16.746;2022-12-28T07:56:06;100383.88;;;1.47;97.35
48402;BME280;65988;52.422;16.746;2022-12-28T07:58:32;100331.16;;;1.42;96.60
48402;BME280;65988;52.422;16.746;2022-12-28T08:01:13;100355.16;;;1.64;96.67
48402;BME280;65988;52.422;16.746;2022-12-28T08:03:39;100361.16;;;1.70;96.71
48402;BME280;65988;52.422;16.746;2022-12-28T08:06:07;100327.84;;;1.52;96.57
48402;BME280;65988;52.422;16.746;2022-12-28T08:08:37;100315.06;;;1.49;96.59
48402;BME280;65988;52.422;16.746;2022-12-28T08:11:06;100336.44;;;1.63;96.10
48402;BME280;65988;52.422;16.746;2022-12-28T08:13:38;100336.59;;;1.77;96.24
48402;BME280;65988;52.422;16.746;2022-12-28T08:16:05;100295.50;;;1.45;96.04
48402;BME280;65988;52.422;16.746;2022-12-28T08:18:32;100303.28;;;1.62;96.07
48402;BME280;65988;52.422;16.746;2022-12-28T08:21:05;100309.41;;;1.78;95.66
48402;BME280;65988;52.422;16.746;2022-12-28T08:23:33;100289.84;;;1.75;95.53
48402;BME280;65988;52.422;16.746;2022-12-28T08:26:40;100296.75;;;1.92;95.25
48402;BME280;65988;52.422;16.746;2022-12-28T08:28:59;100278.97;;;2.01;94.97
48402;BME280;65988;52.422;16.746;2022-12-28T08:31:32;100232.91;;;1.78;94.56
48402;BME280;65988;52.422;16.746;2022-12-28T08:34:03;100235.44;;;1.76;94.56
48402;BME280;65988;52.422;16.746;2022-12-28T08:36:32;100239.75;;;1.83;94.60
48402;BME280;65988;52.422;16.746;2022-12-28T08:39:02;100273.03;;;2.02;94.29
48402;BME280;65988;52.422;16.746;2022-12-28T08:41:31;100232.06;;;1.80;94.33
48402;BME280;65988;52.422;16.746;2022-12-28T08:44:10;100239.88;;;2.00;93.91
48402;BME280;65988;52.422;16.746;2022-12-28T08:46:42;100226.22;;;1.91;93.97
48402;BME280;65988;52.422;16.746;2022-12-28T08:49:13;100204.94;;;1.92;93.47
48402;BME280;65988;52.422;16.746;2022-12-28T08:51:46;100215.28;;;2.12;93.50
48402;BME280;65988;52.422;16.746;2022-12-28T08:54:20;100219.66;;;2.31;93.17
48402;BME280;65988;52.422;16.746;2022-12-28T08:57:18;100172.75;;;2.08;92.88
48402;BME280;65988;52.422;16.746;2022-12-28T09:03:16;100182.13;;;2.18;92.92
48402;BME280;65988;52.422;16.746;2022-12-28T09:09:31;100157.44;;;2.11;92.45
48402;BME280;65988;52.422;16.746;2022-12-28T09:12:14;100163.50;;;2.31;92.23
48402;BME280;65988;52.422;16.746;2022-12-28T09:18:08;100156.75;;;2.49;91.75
48402;BME280;65988;52.422;16.746;2022-12-28T09:31:31;99976.75;;;4.24;86.59
48402;BME280;65988;52.422;16.746;2022-12-28T09:37:15;99787.53;;;4.01;83.81
